sensor_id;sensor_type;location;lat;lon;timestamp;P1;durP1;ratioP1;P2;durP2;ratioP2
9823;SDS011;4951;50.778;7.196;2023-03-18T00:02:12;11.90;;;6.13;;
9823;SDS011;4951;50.778;7.196;2023-03-18T00:04:40;10.33;;;5.60;;
9823;SDS011;4951;50.778;7.196;2023-03-18T00:07:09;9.17;;;5.73;;
9823;SDS011;4951;50.778;7.196;2023-03-18T00:09:37;10.57;;;6.23;;
9823;SDS011;4951;50.778;7.196;2023-03-18T00:12:13;12.20;;;6.93;;
9823;SDS011;4951;50.778;7.196;2023-03-18T00:14:48;11.63;;;6.63;;
9823;SDS011;4951;50.778;7.196;2023-03-18T00:17:29;11.97;;;6.13;;
9823;SDS011;4951;50.778;7.196;2023-03-18T00:19:57;6.40;;;5.57;;
9823;SDS011;4951;50.778;7.196;2023-03-18T00:22:32;9.83;;;5.13;;
9823;SDS011;4951;50.778;7.196;2023-03-18T00:25:05;8.20;;;5.37;;
9823;SDS011;4951;50.778;7.196;2023-03-18T00:27:43;8.80;;;5.80;;
9823;SDS011;4951;50.778;7.196;2023-03-18T00:30:37;8.67;;;5.93;;
9823;SDS011;4951;50.778;7.196;2023-03-18T00:33:17;13.07;;;8.03;;
9823;SDS011;4951;50.778;7.196;2023-03-18T00:35:49;12.60;;;6.73;;
9823;SDS011;4951;50.778;7.196;2023-03-18T00:38:23;7.93;;;5.53;;
9823;SDS011;4951;50.778;7.196;2023-03-18T00:40:58;7.80;;;5.63;;
9823;SDS011;4951;50.778;7.196;2023-03-18T00:43:39;9.50;;;5.23;;
9823;SDS011;4951;50.778;7.196;2023-03-18T00:46:34;9.73;;;6.40;;
9823;SDS011;4951;50.778;7.196;2023-03-18T00:49:05;9.67;;;6.17;;
9823;SDS011;4951;50.778;7.196;2023-03-18T00:51:40;7.90;;;5.70;;
9823;SDS011;4951;50.778;7.196;2023-03-18T00:54:12;9.00;;;6.30;;
9823;SDS011;4951;50.778;7.196;2023-03-18T00:56:59;12.27;;;6.77;;
9823;SDS011;4951;50.778;7.196;2023-03-18T00:59:34;10.50;;;6.77;;
9823;SDS011;4951;50.778;7.196;2023-03-18T01:02:07;8.70;;;5.60;;
9823;SDS011;4951;50.778;7.196;2023-03-18T01:05:24;9.63;;;6.33;;
9823;SDS011;4951;50.778;7.196;2023-03-18T01:08:07;9.50;;;5.30;;
9823;SDS011;4951;50.778;7.196;2023-03-18T01:11:16;10.00;;;5.60;;
9823;SDS011;4951;50.778;7.196;2023-03-18T01:13:49;10.17;;;6.13;;
9823;SDS011;4951;50.778;7.196;2023-03-18T01:17:06;9.37;;;6.70;;
9823;SDS011;4951;50.778;7.196;2023-03-18T01:19:59;8.67;;;5.83;;
9823;SDS011;4951;50.778;7.196;2023-03-18T01:22:48;9.30;;;5.70;;
9823;SDS011;4951;50.778;7.196;2023-03-18T01:26:02;7.53;;;5.33;;
9823;SDS011;4951;50.778;7.196;2023-03-18T01:28:37;9.47;;;6.13;;
9823;SDS011;4951;50.778;7.196;2023-03-18T01:31:09;13.13;;;7.70;;
9823;SDS011;4951;50.778;7.196;2023-03-18T01:33:47;10.33;;;7.47;;
9823;SDS011;4951;50.778;7.196;2023-03-18T01:36:48;14.13;;;7.03;;
9823;SDS011;4951;50.778;7.196;2023-03-18T01:39:20;7.83;;;6.00;;
9823;SDS011;4951;50.778;7.196;2023-03-18T01:42:03;14.67;;;9.07;;
9823;SDS011;4951;50.778;7.196;2023-03-18T01:44:48;12.30;;;9.03;;
9823;SDS011;4951;50.778;7.196;2023-03-18T01:47:42;14.67;;;9.23;;
9823;SDS011;4951;50.778;7.196;2023-03-18T01:53:44;9.93;;;7.50;;
9823;SDS011;4951;50.778;7.196;2023-03-18T01:56:24;12.33;;;8.37;;
9823;SDS011;4951;50.778;7.196;2023-03-18T01:59:11;16.10;;;10.47;;
9823;SDS011;4951;50.778;7.196;2023-03-18T02:01:58;13.07;;;8.30;;
9823;SDS011;4951;50.778;7.196;2023-03-18T02:04:38;13.23;;;10.30;;
9823;SDS011;4951;50.778;7.196;2023-03-18T02:07:50;19.17;;;13.50;;
9823;SDS011;4951;50.778;7.196;2023-03-18T02:10:32;11.47;;;9.00;;
9823;SDS011;4951;50.778;7.196;2023-03-18T02:13:37;17.17;;;9.93;;
9823;SDS011;4951;50.778;7.196;2023-03-18T02:16:17;13.77;;;10.37;;
9823;SDS011;4951;50.778;7.196;2023-03-18T02:19:14;17.10;;;11.20;;
9823;SDS011;4951;50.778;7.196;2023-03-18T02:22:01;15.60;;;10.40;;
9823;SDS011;4951;50.778;7.196;2023-03-18T02:25:20;10.33;;;8.67;;
9823;SDS011;4951;50.778;7.196;2023-03-18T02:28:22;20.13;;;11.53;;
9823;SDS011;4951;50.778;7.196;2023-03-18T02:31:17;19.37;;;11.70;;
9823;SDS011;4951;50.778;7.196;2023-03-18T02:34:26;17.17;;;10.80;;
9823;SDS011;4951;50.778;7.196;2023-03-18T02:37:12;11.63;;;8.70;;
9823;SDS011;4951;50.778;7.196;2023-03-18T02:40:23;13.80;;;10.00;;
9823;SDS011;4951;50.778;7.196;2023-03-18T02:43:05;14.27;;;9.13;;
9823;SDS011;4951;50.778;7.196;2023-03-18T02:46:10;13.60;;;9.27;;
9823;SDS011;4951;50.778;7.196;2023-03-18T02:48:46;10.03;;;8.30;;
9823;SDS011;4951;50.778;7.196;2023-03-18T02:51:31;9.47;;;8.43;;
9823;SDS011;4951;50.778;7.196;2023-03-18T02:54:17;12.97;;;9.47;;
9823;SDS011;4951;50.778;7.196;2023-03-18T02:57:07;13.10;;;8.90;;
9823;SDS011;4951;50.778;7.196;2023-03-18T02:59:45;17.97;;;10.70;;
9823;SDS011;4951;50.778;7.196;2023-03-18T03:02:24;7.87;;;7.07;;
9823;SDS011;4951;50.778;7.196;2023-03-18T03:05:20;13.13;;;9.20;;
9823;SDS011;4951;50.778;7.196;2023-03-18T03:07:59;13.70;;;10.13;;
9823;SDS011;4951;50.778;7.196;2023-03-18T03:10:56;12.87;;;10.33;;
9823;SDS011;4951;50.778;7.196;2023-03-18T03:13:27;14.00;;;10.57;;
9823;SDS011;4951;50.778;7.196;2023-03-18T03:16:17;12.80;;;9.60;;
9823;SDS011;4951;50.778;7.196;2023-03-18T03:19:08;13.57;;;8.77;;
9823;SDS011;4951;50.778;7.196;2023-03-18T03:21:42;17.57;;;12.13;;
9823;SDS011;4951;50.778;7.196;2023-03-18T03:24:26;15.97;;;12.77;;
9823;SDS011;4951;50.778;7.196;2023-03-18T03:26:55;9.93;;;8.50;;
9823;SDS011;4951;50.778;7.196;2023-03-18T03:29:28;9.83;;;7.63;;
9823;SDS011;4951;50.778;7.196;2023-03-18T03:32:12;13.07;;;9.77;;
9823;SDS011;4951;50.778;7.196;2023-03-18T03:34:47;10.80;;;7.77;;
9823;SDS011;4951;50.778;7.196;2023-03-18T03:37:15;20.53;;;14.13;;
9823;SDS011;4951;50.778;7.196;2023-03-18T03:39:47;19.83;;;13.20;;
9823;SDS011;4951;50.778;7.196;2023-03-18T03:42:18;20.27;;;14.63;;
9823;SDS011;4951;50.778;7.196;2023-03-18T03:45:14;13.83;;;9.63;;
9823;SDS011;4951;50.778;7.196;2023-03-18T03:47:48;17.73;;;11.97;;
9823;SDS011;4951;50.778;7.196;2023-03-18T03:50:24;17.47;;;13.00;;
9823;SDS011;4951;50.778;7.196;2023-03-18T03:52:53;15.70;;;11.37;;
9823;SDS011;4951;50.778;7.196;2023-03-18T03:55:21;16.43;;;10.80;;
9823;SDS011;4951;50.778;7.196;2023-03-18T03:57:55;10.87;;;9.40;;
9823;SDS011;4951;50.778;7.196;2023-03-18T04:00:44;10.70;;;7.90;;
9823;SDS011;4951;50.778;7.196;2023-03-18T04:03:11;11.97;;;9.60;;
9823;SDS011;4951;50.778;7.196;2023-03-18T04:05:45;10.87;;;7.53;;
9823;SDS011;4951;50.778;7.196;2023-03-18T04:08:21;17.13;;;12.27;;
9823;SDS011;4951;50.778;7.196;2023-03-18T04:10:55;17.23;;;12.50;;
9823;SDS011;4951;50.778;7.196;2023-03-18T04:13:23;11.03;;;8.07;;
9823;SDS011;4951;50.778;7.196;2023-03-18T04:15:52;11.43;;;8.43;;
9823;SDS011;4951;50.778;7.196;2023-03-18T04:18:23;14.20;;;8.87;;
9823;SDS011;4951;50.778;7.196;2023-03-18T04:20:52;16.87;;;12.43;;
9823;SDS011;4951;50.778;7.196;2023-03-18T04:23:41;17.27;;;10.63;;
9823;SDS011;4951;50.778;7.196;2023-03-18T04:26:12;13.27;;;10.57;;
9823;SDS011;4951;50.778;7.196;2023-03-18T04:28:42;13.47;;;10.20;;
9823;SDS011;4951;50.778;7.196;2023-03-18T04:31:20;23.57;;;15.63;;
9823;SDS011;4951;50.778;7.196;2023-03-18T04:33:47;17.50;;;11.73;;
9823;SDS011;4951;50.778;7.196;2023-03-18T04:36:26;17.67;;;12.20;;
9823;SDS011;4951;50.778;7.196;2023-03-18T04:38:57;19.87;;;13.10;;
9823;SDS011;4951;50.778;7.196;2023-03-18T04:41:29;20.40;;;11.97;;
9823;SDS011;4951;50.778;7.196;2023-03-18T04:44:34;21.73;;;13.73;;
9823;SDS011;4951;50.778;7.196;2023-03-18T04:47:03;21.37;;;14.00;;
9823;SDS011;4951;50.778;7.196;2023-03-18T04:49:38;10.83;;;9.10;;
9823;SDS011;4951;50.778;7.196;2023-03-18T04:52:15;15.03;;;9.90;;
9823;SDS011;4951;50.778;7.196;2023-03-18T04:54:56;16.67;;;12.23;;
9823;SDS011;4951;50.778;7.196;2023-03-18T04:57:46;12.50;;;8.57;;
9823;SDS011;4951;50.778;7.196;2023-03-18T05:00:51;12.80;;;8.80;;
9823;SDS011;4951;50.778;7.196;2023-03-18T05:03:29;9.03;;;7.90;;
9823;SDS011;4951;50.778;7.196;2023-03-18T05:06:19;10.80;;;7.93;;
9823;SDS011;4951;50.778;7.196;2023-03-18T05:08:56;8.97;;;7.10;;
9823;SDS011;4951;50.778;7.196;2023-03-18T05:11:33;10.07;;;6.90;;
9823;SDS011;4951;50.778;7.196;2023-03-18T05:14:16;14.27;;;8.50;;
9823;SDS011;4951;50.778;7.196;2023-03-18T05:16:47;10.23;;;7.30;;
9823;SDS011;4951;50.778;7.196;2023-03-18T05:19:18;6.90;;;5.83;;
9823;SDS011;4951;50.778;7.196;2023-03-18T05:22:05;11.83;;;6.30;;
9823;SDS011;4951;50.778;7.196;2023-03-18T05:24:38;8.70;;;6.27;;
9823;SDS011;4951;50.778;7.196;2023-03-18T05:27:16;11.33;;;6.73;;
9823;SDS011;4951;50.778;7.196;2023-03-18T05:30:13;10.43;;;6.17;;
9823;SDS011;4951;50.778;7.196;2023-03-18T05:32:52;7.73;;;5.73;;
9823;SDS011;4951;50.778;7.196;2023-03-18T05:38:18;7.40;;;5.60;;
9823;SDS011;4951;50.778;7.196;2023-03-18T05:43:55;9.87;;;7.27;;
9823;SDS011;4951;50.778;7.196;2023-03-18T05:46:35;10.17;;;7.93;;
9823;SDS011;4951;50.778;7.196;2023-03-18T05:49:21;8.60;;;6.97;;
9823;SDS011;4951;50.778;7.196;2023-03-18T05:52:16;11.63;;;7.53;;
9823;SDS011;4951;50.778;7.196;2023-03-18T05:54:56;9.70;;;8.03;;
9823;SDS011;4951;50.778;7.196;2023-03-18T05:57:35;14.80;;;10.00;;
9823;SDS011;4951;50.778;7.196;2023-03-18T06:00:09;10.67;;;6.70;;
9823;SDS011;4951;50.778;7.196;2023-03-18T06:02:46;8.67;;;6.90;;
9823;SDS011;4951;50.778;7.196;2023-03-18T06:05:33;11.50;;;6.87;;
9823;SDS011;4951;50.778;7.196;2023-03-18T06:08:11;9.73;;;7.70;;
9823;SDS011;4951;50.778;7.196;2023-03-18T06:10:45;10.83;;;6.67;;
9823;SDS011;4951;50.778;7.196;2023-03-18T06:13:33;10.00;;;7.23;;
9823;SDS011;4951;50.778;7.196;2023-03-18T06:16:14;8.47;;;5.10;;
9823;SDS011;4951;50.778;7.196;2023-03-18T06:18:46;6.60;;;6.00;;
9823;SDS011;4951;50.778;7.196;2023-03-18T06:21:31;11.07;;;5.67;;
9823;SDS011;4951;50.778;7.196;2023-03-18T06:24:02;8.13;;;4.90;;
9823;SDS011;4951;50.778;7.196;2023-03-18T06:26:33;7.50;;;5.20;;
9823;SDS011;4951;50.778;7.196;2023-03-18T06:29:11;7.57;;;4.93;;
9823;SDS011;4951;50.778;7.196;2023-03-18T06:31:42;7.87;;;5.20;;
9823;SDS011;4951;50.778;7.196;2023-03-18T06:34:39;7.97;;;5.10;;
9823;SDS011;4951;50.778;7.196;2023-03-18T06:37:19;5.90;;;4.40;;
9823;SDS011;4951;50.778;7.196;2023-03-18T06:39:48;6.33;;;5.70;;
9823;SDS011;4951;50.778;7.196;2023-03-18T06:42:28;8.47;;;5.17;;
9823;SDS011;4951;50.778;7.196;2023-03-18T06:45:09;5.33;;;4.30;;
9823;SDS011;4951;50.778;7.196;2023-03-18T06:48:02;5.67;;;4.30;;
9823;SDS011;4951;50.778;7.196;2023-03-18T06:50:33;6.17;;;4.23;;
9823;SDS011;4951;50.778;7.196;2023-03-18T06:55:59;10.97;;;5.23;;
9823;SDS011;4951;50.778;7.196;2023-03-18T06:58:49;8.93;;;4.60;;
9823;SDS011;4951;50.778;7.196;2023-03-18T07:01:21;7.03;;;4.53;;
9823;SDS011;4951;50.778;7.196;2023-03-18T07:03:52;8.13;;;4.37;;
9823;SDS011;4951;50.778;7.196;2023-03-18T07:06:38;4.73;;;4.03;;
9823;SDS011;4951;50.778;7.196;2023-03-18T07:09:09;7.87;;;4.43;;
9823;SDS011;4951;50.778;7.196;2023-03-18T07:11:50;7.57;;;4.30;;
9823;SDS011;4951;50.778;7.196;2023-03-18T07:14:48;5.50;;;4.30;;
9823;SDS011;4951;50.778;7.196;2023-03-18T07:17:29;7.53;;;4.40;;
9823;SDS011;4951;50.778;7.196;2023-03-18T07:19:57;6.53;;;3.93;;
9823;SDS011;4951;50.778;7.196;2023-03-18T07:22:25;6.73;;;3.90;;
9823;SDS011;4951;50.778;7.196;2023-03-18T07:25:05;8.40;;;4.13;;
9823;SDS011;4951;50.778;7.196;2023-03-18T07:27:43;6.23;;;4.50;;
9823;SDS011;4951;50.778;7.196;2023-03-18T07:30:21;7.30;;;4.23;;
9823;SDS011;4951;50.778;7.196;2023-03-18T07:32:57;8.67;;;4.10;;
9823;SDS011;4951;50.778;7.196;2023-03-18T07:35:29;7.30;;;4.23;;
9823;SDS011;4951;50.778;7.196;2023-03-18T07:37:57;6.10;;;4.30;;
9823;SDS011;4951;50.778;7.196;2023-03-18T07:40:26;6.50;;;3.90;;
9823;SDS011;4951;50.778;7.196;2023-03-18T07:43:02;7.00;;;4.00;;
9823;SDS011;4951;50.778;7.196;2023-03-18T07:45:51;7.50;;;3.60;;
9823;SDS011;4951;50.778;7.196;2023-03-18T07:48:23;5.47;;;3.80;;
9823;SDS011;4951;50.778;7.196;2023-03-18T07:50:55;4.70;;;3.70;;
9823;SDS011;4951;50.778;7.196;2023-03-18T07:53:24;8.33;;;3.70;;
9823;SDS011;4951;50.778;7.196;2023-03-18T07:55:54;6.10;;;3.93;;
9823;SDS011;4951;50.778;7.196;2023-03-18T07:58:26;6.73;;;3.50;;
9823;SDS011;4951;50.778;7.196;2023-03-18T08:01:13;6.93;;;3.50;;
9823;SDS011;4951;50.778;7.196;2023-03-18T08:03:56;5.73;;;3.67;;
9823;SDS011;4951;50.778;7.196;2023-03-18T08:06:39;5.70;;;3.37;;
9823;SDS011;4951;50.778;7.196;2023-03-18T08:09:07;6.80;;;3.40;;
9823;SDS011;4951;50.778;7.196;2023-03-18T08:11:48;5.77;;;3.33;;
9823;SDS011;4951;50.778;7.196;2023-03-18T08:14:21;6.67;;;3.60;;
9823;SDS011;4951;50.778;7.196;2023-03-18T08:17:00;7.47;;;3.93;;
9823;SDS011;4951;50.778;7.196;2023-03-18T08:19:33;6.73;;;3.60;;
9823;SDS011;4951;50.778;7.196;2023-03-18T08:22:03;6.63;;;3.50;;
9823;SDS011;4951;50.778;7.196;2023-03-18T08:24:32;5.00;;;3.50;;
9823;SDS011;4951;50.778;7.196;2023-03-18T08:27:22;6.27;;;3.67;;
9823;SDS011;4951;50.778;7.196;2023-03-18T08:29:51;5.60;;;3.30;;
9823;SDS011;4951;50.778;7.196;2023-03-18T08:32:22;5.47;;;3.33;;
9823;SDS011;4951;50.778;7.196;2023-03-18T08:37:45;4.37;;;2.90;;
9823;SDS011;4951;50.778;7.196;2023-03-18T08:40:33;6.30;;;3.10;;
9823;SDS011;4951;50.778;7.196;2023-03-18T08:43:39;4.80;;;2.97;;
9823;SDS011;4951;50.778;7.196;2023-03-18T08:46:07;8.40;;;3.50;;
9823;SDS011;4951;50.778;7.196;2023-03-18T08:48:46;4.87;;;3.10;;
9823;SDS011;4951;50.778;7.196;2023-03-18T08:51:38;5.07;;;3.10;;
9823;SDS011;4951;50.778;7.196;2023-03-18T08:54:07;6.13;;;3.17;;
9823;SDS011;4951;50.778;7.196;2023-03-18T08:56:40;4.47;;;3.10;;
9823;SDS011;4951;50.778;7.196;2023-03-18T08:59:10;6.27;;;2.70;;
9823;SDS011;4951;50.778;7.196;2023-03-18T09:01:37;4.60;;;2.90;;
9823;SDS011;4951;50.778;7.196;2023-03-18T09:04:06;6.67;;;3.00;;
9823;SDS011;4951;50.778;7.196;2023-03-18T09:06:37;4.77;;;2.90;;
9823;SDS011;4951;50.778;7.196;2023-03-18T09:09:16;5.83;;;3.13;;
9823;SDS011;4951;50.778;7.196;2023-03-18T09:11:44;6.20;;;3.40;;
9823;SDS011;4951;50.778;7.196;2023-03-18T09:14:12;4.20;;;2.77;;
9823;SDS011;4951;50.778;7.196;2023-03-18T09:16:40;4.27;;;2.90;;
9823;SDS011;4951;50.778;7.196;2023-03-18T09:19:10;4.07;;;3.00;;
9823;SDS011;4951;50.778;7.196;2023-03-18T09:21:48;7.60;;;2.67;;
9823;SDS011;4951;50.778;7.196;2023-03-18T09:24:17;5.13;;;2.73;;
9823;SDS011;4951;50.778;7.196;2023-03-18T09:26:52;4.80;;;2.53;;
9823;SDS011;4951;50.778;7.196;2023-03-18T09:29:24;5.00;;;2.60;;
9823;SDS011;4951;50.778;7.196;2023-03-18T09:32:03;3.90;;;2.80;;
9823;SDS011;4951;50.778;7.196;2023-03-18T09:34:33;4.63;;;2.67;;
9823;SDS011;4951;50.778;7.196;2023-03-18T09:37:07;6.67;;;2.93;;
9823;SDS011;4951;50.778;7.196;2023-03-18T09:39:51;3.77;;;2.30;;
9823;SDS011;4951;50.778;7.196;2023-03-18T09:42:46;3.70;;;2.33;;
9823;SDS011;4951;50.778;7.196;2023-03-18T09:45:41;4.57;;;2.10;;
9823;SDS011;4951;50.778;7.196;2023-03-18T09:48:42;4.80;;;2.43;;
9823;SDS011;4951;50.778;7.196;2023-03-18T09:51:35;3.30;;;2.40;;
9823;SDS011;4951;50.778;7.196;2023-03-18T09:54:17;2.80;;;2.20;;
9823;SDS011;4951;50.778;7.196;2023-03-18T09:57:13;3.87;;;2.10;;
9823;SDS011;4951;50.778;7.196;2023-03-18T10:00:02;3.00;;;1.97;;
9823;SDS011;4951;50.778;7.196;2023-03-18T10:02:39;5.03;;;2.10;;
9823;SDS011;4951;50.778;7.196;2023-03-18T10:05:12;5.40;;;2.10;;
9823;SDS011;4951;50.778;7.196;2023-03-18T10:07:45;2.97;;;1.90;;
9823;SDS011;4951;50.778;7.196;2023-03-18T10:10:28;4.13;;;2.27;;
9823;SDS011;4951;50.778;7.196;2023-03-18T10:13:04;3.53;;;1.90;;
9823;SDS011;4951;50.778;7.196;2023-03-18T10:15:39;4.23;;;2.20;;
9823;SDS011;4951;50.778;7.196;2023-03-18T10:18:15;4.00;;;1.90;;
9823;SDS011;4951;50.778;7.196;2023-03-18T10:20:56;3.23;;;2.10;;
9823;SDS011;4951;50.778;7.196;2023-03-18T10:23:36;3.87;;;1.83;;
9823;SDS011;4951;50.778;7.196;2023-03-18T10:26:18;3.10;;;1.90;;
9823;SDS011;4951;50.778;7.196;2023-03-18T10:29:06;4.30;;;2.00;;
9823;SDS011;4951;50.778;7.196;2023-03-18T10:32:15;2.60;;;1.60;;
9823;SDS011;4951;50.778;7.196;2023-03-18T10:35:25;3.10;;;1.83;;
9823;SDS011;4951;50.778;7.196;2023-03-18T10:38:10;2.72;;;1.80;;
9823;SDS011;4951;50.778;7.196;2023-03-18T10:40:50;2.15;;;1.60;;
9823;SDS011;4951;50.778;7.196;2023-03-18T10:43:29;2.83;;;1.88;;
9823;SDS011;4951;50.778;7.196;2023-03-18T10:46:08;1.90;;;1.60;;
9823;SDS011;4951;50.778;7.196;2023-03-18T10:48:45;2.30;;;1.70;;
9823;SDS011;4951;50.778;7.196;2023-03-18T10:51:34;2.47;;;1.67;;
9823;SDS011;4951;50.778;7.196;2023-03-18T10:54:26;2.90;;;1.80;;
9823;SDS011;4951;50.778;7.196;2023-03-18T10:57:43;2.90;;;1.77;;
9823;SDS011;4951;50.778;7.196;2023-03-18T11:00:26;2.38;;;1.85;;
9823;SDS011;4951;50.778;7.196;2023-03-18T11:02:59;3.58;;;1.60;;
9823;SDS011;4951;50.778;7.196;2023-03-18T11:06:02;3.53;;;2.00;;
9823;SDS011;4951;50.778;7.196;2023-03-18T11:08:59;3.60;;;2.00;;
9823;SDS011;4951;50.778;7.196;2023-03-18T11:11:55;2.30;;;1.60;;
9823;SDS011;4951;50.778;7.196;2023-03-18T11:14:55;3.03;;;1.80;;
9823;SDS011;4951;50.778;7.196;2023-03-18T11:17:25;3.20;;;1.87;;
9823;SDS011;4951;50.778;7.196;2023-03-18T11:20:35;3.40;;;1.80;;
9823;SDS011;4951;50.778;7.196;2023-03-18T11:23:30;4.60;;;1.90;;
9823;SDS011;4951;50.778;7.196;2023-03-18T11:26:17;2.25;;;1.50;;
9823;SDS011;4951;50.778;7.196;2023-03-18T11:29:03;4.17;;;1.90;;
9823;SDS011;4951;50.778;7.196;2023-03-18T11:31:50;3.27;;;2.03;;
9823;SDS011;4951;50.778;7.196;2023-03-18T11:41:04;2.47;;;1.50;;
9823;SDS011;4951;50.778;7.196;2023-03-18T11:43:33;2.28;;;1.60;;
9823;SDS011;4951;50.778;7.196;2023-03-18T11:46:09;1.65;;;1.50;;
9823;SDS011;4951;50.778;7.196;2023-03-18T11:48:50;2.85;;;1.58;;
9823;SDS011;4951;50.778;7.196;2023-03-18T11:51:30;2.78;;;1.67;;
9823;SDS011;4951;50.778;7.196;2023-03-18T11:54:14;2.77;;;1.60;;
9823;SDS011;4951;50.778;7.196;2023-03-18T11:57:04;2.83;;;1.85;;
9823;SDS011;4951;50.778;7.196;2023-03-18T12:03:08;2.25;;;1.50;;
9823;SDS011;4951;50.778;7.196;2023-03-18T12:06:25;3.20;;;1.55;;
9823;SDS011;4951;50.778;7.196;2023-03-18T12:09:25;2.63;;;1.80;;
9823;SDS011;4951;50.778;7.196;2023-03-18T12:12:16;4.15;;;1.80;;
9823;SDS011;4951;50.778;7.196;2023-03-18T12:15:27;1.98;;;1.60;;
9823;SDS011;4951;50.778;7.196;2023-03-18T12:18:06;3.70;;;1.80;;
9823;SDS011;4951;50.778;7.196;2023-03-18T12:20:53;2.55;;;1.60;;
9823;SDS011;4951;50.778;7.196;2023-03-18T12:23:38;2.35;;;1.60;;
9823;SDS011;4951;50.778;7.196;2023-03-18T12:26:50;3.28;;;1.50;;
9823;SDS011;4951;50.778;7.196;2023-03-18T12:29:40;2.75;;;1.70;;
9823;SDS011;4951;50.778;7.196;2023-03-18T12:32:25;2.55;;;1.60;;
9823;SDS011;4951;50.778;7.196;2023-03-18T12:35:56;4.05;;;1.65;;
9823;SDS011;4951;50.778;7.196;2023-03-18T12:38:38;3.08;;;1.65;;
9823;SDS011;4951;50.778;7.196;2023-03-18T12:41:27;3.45;;;1.50;;
9823;SDS011;4951;50.778;7.196;2023-03-18T12:44:13;3.00;;;1.50;;
9823;SDS011;4951;50.778;7.196;2023-03-18T12:47:11;2.75;;;1.42;;
9823;SDS011;4951;50.778;7.196;2023-03-18T12:49:58;3.25;;;1.70;;
9823;SDS011;4951;50.778;7.196;2023-03-18T12:52:33;3.95;;;1.95;;
9823;SDS011;4951;50.778;7.196;2023-03-18T12:55:09;4.25;;;1.98;;
9823;SDS011;4951;50.778;7.196;2023-03-18T12:57:47;5.47;;;2.17;;
9823;SDS011;4951;50.778;7.196;2023-03-18T13:00:44;3.45;;;1.65;;
9823;SDS011;4951;50.778;7.196;2023-03-18T13:03:31;3.85;;;1.83;;
9823;SDS011;4951;50.778;7.196;2023-03-18T13:06:07;4.15;;;1.80;;
9823;SDS011;4951;50.778;7.196;2023-03-18T13:09:01;4.32;;;1.75;;
9823;SDS011;4951;50.778;7.196;2023-03-18T13:11:52;4.50;;;1.90;;
9823;SDS011;4951;50.778;7.196;2023-03-18T13:15:03;4.25;;;1.98;;
9823;SDS011;4951;50.778;7.196;2023-03-18T13:18:11;3.13;;;1.70;;
9823;SDS011;4951;50.778;7.196;2023-03-18T13:21:14;4.72;;;1.98;;
9823;SDS011;4951;50.778;7.196;2023-03-18T13:24:18;3.25;;;1.70;;
9823;SDS011;4951;50.778;7.196;2023-03-18T13:27:16;3.30;;;1.85;;
9823;SDS011;4951;50.778;7.196;2023-03-18T13:30:21;4.05;;;1.85;;
9823;SDS011;4951;50.778;7.196;2023-03-18T13:43:27;3.28;;;2.00;;
9823;SDS011;4951;50.778;7.196;2023-03-18T13:46:11;3.17;;;1.77;;
9823;SDS011;4951;50.778;7.196;2023-03-18T13:48:55;2.65;;;1.70;;
9823;SDS011;4951;50.778;7.196;2023-03-18T13:51:45;3.70;;;2.00;;
9823;SDS011;4951;50.778;7.196;2023-03-18T13:54:36;7.13;;;2.10;;
9823;SDS011;4951;50.778;7.196;2023-03-18T13:57:17;5.63;;;2.10;;
9823;SDS011;4951;50.778;7.196;2023-03-18T14:00:36;4.33;;;2.10;;
9823;SDS011;4951;50.778;7.196;2023-03-18T14:05:47;5.53;;;2.20;;
9823;SDS011;4951;50.778;7.196;2023-03-18T14:08:37;3.43;;;2.00;;
9823;SDS011;4951;50.778;7.196;2023-03-18T14:17:40;5.50;;;2.63;;
9823;SDS011;4951;50.778;7.196;2023-03-18T14:20:19;5.70;;;2.50;;
9823;SDS011;4951;50.778;7.196;2023-03-18T14:22:55;4.43;;;2.57;;
9823;SDS011;4951;50.778;7.196;2023-03-18T14:25:48;6.63;;;2.60;;
9823;SDS011;4951;50.778;7.196;2023-03-18T14:29:14;6.10;;;2.33;;
9823;SDS011;4951;50.778;7.196;2023-03-18T14:31:50;4.10;;;2.37;;
9823;SDS011;4951;50.778;7.196;2023-03-18T14:37:24;4.33;;;2.00;;
9823;SDS011;4951;50.778;7.196;2023-03-18T14:40:11;4.45;;;2.30;;
9823;SDS011;4951;50.778;7.196;2023-03-18T14:42:52;3.92;;;1.90;;
9823;SDS011;4951;50.778;7.196;2023-03-18T14:45:38;5.03;;;2.20;;
9823;SDS011;4951;50.778;7.196;2023-03-18T14:48:10;6.30;;;1.85;;
9823;SDS011;4951;50.778;7.196;2023-03-18T14:50:58;3.90;;;1.90;;
9823;SDS011;4951;50.778;7.196;2023-03-18T14:53:41;4.07;;;2.10;;
9823;SDS011;4951;50.778;7.196;2023-03-18T14:56:20;3.07;;;1.90;;
9823;SDS011;4951;50.778;7.196;2023-03-18T14:59:22;5.57;;;1.90;;
9823;SDS011;4951;50.778;7.196;2023-03-18T15:02:18;2.93;;;1.80;;
9823;SDS011;4951;50.778;7.196;2023-03-18T15:04:49;5.03;;;2.13;;
9823;SDS011;4951;50.778;7.196;2023-03-18T15:07:36;4.40;;;2.03;;
9823;SDS011;4951;50.778;7.196;2023-03-18T15:10:14;3.10;;;1.80;;
9823;SDS011;4951;50.778;7.196;2023-03-18T15:13:06;3.83;;;2.20;;
9823;SDS011;4951;50.778;7.196;2023-03-18T15:15:56;3.95;;;2.05;;
9823;SDS011;4951;50.778;7.196;2023-03-18T15:18:24;3.13;;;1.80;;
9823;SDS011;4951;50.778;7.196;2023-03-18T15:20:54;3.72;;;2.33;;
9823;SDS011;4951;50.778;7.196;2023-03-18T15:23:50;5.05;;;2.17;;
9823;SDS011;4951;50.778;7.196;2023-03-18T15:26:30;3.15;;;2.00;;
9823;SDS011;4951;50.778;7.196;2023-03-18T15:32:25;3.83;;;2.00;;
9823;SDS011;4951;50.778;7.196;2023-03-18T15:35:25;5.60;;;2.13;;
9823;SDS011;4951;50.778;7.196;2023-03-18T15:38:04;5.80;;;2.20;;
9823;SDS011;4951;50.778;7.196;2023-03-18T15:44:26;4.32;;;2.05;;
9823;SDS011;4951;50.778;7.196;2023-03-18T15:47:10;7.63;;;2.10;;
9823;SDS011;4951;50.778;7.196;2023-03-18T15:50:50;3.40;;;2.13;;
9823;SDS011;4951;50.778;7.196;2023-03-18T15:53:51;3.53;;;2.00;;
9823;SDS011;4951;50.778;7.196;2023-03-18T15:56:29;3.87;;;2.20;;
9823;SDS011;4951;50.778;7.196;2023-03-18T16:02:13;4.23;;;2.03;;
9823;SDS011;4951;50.778;7.196;2023-03-18T16:04:52;4.50;;;2.20;;
9823;SDS011;4951;50.778;7.196;2023-03-18T16:08:30;3.77;;;2.20;;
9823;SDS011;4951;50.778;7.196;2023-03-18T16:11:15;5.53;;;2.90;;
9823;SDS011;4951;50.778;7.196;2023-03-18T16:13:48;4.67;;;2.73;;
9823;SDS011;4951;50.778;7.196;2023-03-18T16:16:23;5.33;;;2.70;;
9823;SDS011;4951;50.778;7.196;2023-03-18T16:18:58;5.50;;;3.00;;
9823;SDS011;4951;50.778;7.196;2023-03-18T16:21:43;6.03;;;2.37;;
9823;SDS011;4951;50.778;7.196;2023-03-18T16:24:37;6.23;;;2.57;;
9823;SDS011;4951;50.778;7.196;2023-03-18T16:27:18;5.77;;;2.50;;
9823;SDS011;4951;50.778;7.196;2023-03-18T16:29:59;6.70;;;2.70;;
9823;SDS011;4951;50.778;7.196;2023-03-18T16:33:07;6.93;;;3.47;;
9823;SDS011;4951;50.778;7.196;2023-03-18T16:35:52;5.43;;;3.00;;
9823;SDS011;4951;50.778;7.196;2023-03-18T16:38:46;3.93;;;2.57;;
9823;SDS011;4951;50.778;7.196;2023-03-18T16:41:26;4.57;;;2.50;;
9823;SDS011;4951;50.778;7.196;2023-03-18T16:43:53;6.17;;;3.70;;
9823;SDS011;4951;50.778;7.196;2023-03-18T16:46:26;4.70;;;2.70;;
9823;SDS011;4951;50.778;7.196;2023-03-18T16:48:56;7.03;;;3.93;;
9823;SDS011;4951;50.778;7.196;2023-03-18T16:51:30;7.47;;;2.97;;
9823;SDS011;4951;50.778;7.196;2023-03-18T16:54:04;7.73;;;3.83;;
9823;SDS011;4951;50.778;7.196;2023-03-18T16:57:05;9.00;;;4.90;;
9823;SDS011;4951;50.778;7.196;2023-03-18T16:59:54;4.53;;;2.33;;
9823;SDS011;4951;50.778;7.196;2023-03-18T17:02:29;6.33;;;2.43;;
9823;SDS011;4951;50.778;7.196;2023-03-18T17:05:35;4.60;;;2.50;;
9823;SDS011;4951;50.778;7.196;2023-03-18T17:08:07;3.20;;;2.23;;
9823;SDS011;4951;50.778;7.196;2023-03-18T17:10:35;5.77;;;2.63;;
9823;SDS011;4951;50.778;7.196;2023-03-18T17:13:09;3.57;;;2.10;;
9823;SDS011;4951;50.778;7.196;2023-03-18T17:16:03;4.00;;;1.70;;
9823;SDS011;4951;50.778;7.196;2023-03-18T17:18:56;3.53;;;1.80;;
9823;SDS011;4951;50.778;7.196;2023-03-18T17:21:25;2.40;;;1.80;;
9823;SDS011;4951;50.778;7.196;2023-03-18T17:24:04;4.37;;;1.63;;
9823;SDS011;4951;50.778;7.196;2023-03-18T17:26:39;4.53;;;2.47;;
9823;SDS011;4951;50.778;7.196;2023-03-18T17:29:11;4.20;;;1.80;;
9823;SDS011;4951;50.778;7.196;2023-03-18T17:31:51;5.33;;;2.33;;
9823;SDS011;4951;50.778;7.196;2023-03-18T17:34:20;5.87;;;1.90;;
9823;SDS011;4951;50.778;7.196;2023-03-18T17:36:51;4.83;;;2.43;;
9823;SDS011;4951;50.778;7.196;2023-03-18T17:39:30;4.63;;;2.10;;
9823;SDS011;4951;50.778;7.196;2023-03-18T17:48:00;5.40;;;2.47;;
9823;SDS011;4951;50.778;7.196;2023-03-18T17:50:40;2.77;;;2.30;;